aviador You're here:

UATE Decoded Metar

SHEVCHENKO in KAZAKHSTAN
Report Time2017-12-12 15:30:00
UTC Time2017-12-12 15:53:17
Flight Rules vfr VFR
Wind140° at 6 kt
W.Decomp.*RWY 12: 5.8 kt HW 1.5 kt RCW
W.Rank140° ranks 24
Current wind is below 140° avg. (11.2)
Visibility9999 m
Phenomena:N/A
Clouds:Scattered 012 Hf
Broken 130 Hf
Expected CloudBase > 800 ft AGL from Temp-Dew spread
Ceiling13,000 ft
Temp00°C (ISA -15)
Dew Point-2°C (87% RH)
AAT-4.4°C
QNH1031 hPa
Density Alt-2,283 ft
Elevation72 ft
Report Wrong Elevation
Raw Report
METAR UATE 121530Z 14003MPS 9999 SCT012 BKN130 00/M02 Q1031 R12/0///70
NOSIG RMK QFE771/1029=

Extra information for UATE:More info

Metar Taf Metar & Taf Last 4 Metars F.Rules Stats Wind Profile Meteogram Temp Stats Airport Information Weather charts Add Link Nearby VenuesMetar ALERT Operation Metar Decoded Social comments